sensor_id;sensor_type;location;lat;lon;timestamp;P1;durP1;ratioP1;P2;durP2;ratioP2
19059;SDS011;9663;48.996;8.334;2022-12-01T00:01:06;7.60;;;3.58;;
19059;SDS011;9663;48.996;8.334;2022-12-01T00:03:32;7.43;;;3.38;;
19059;SDS011;9663;48.996;8.334;2022-12-01T00:05:59;9.30;;;3.70;;
19059;SDS011;9663;48.996;8.334;2022-12-01T00:08:32;7.35;;;3.45;;
19059;SDS011;9663;48.996;8.334;2022-12-01T00:11:08;7.25;;;3.00;;
19059;SDS011;9663;48.996;8.334;2022-12-01T00:13:38;6.50;;;3.08;;
19059;SDS011;9663;48.996;8.334;2022-12-01T00:16:11;7.22;;;3.40;;
19059;SDS011;9663;48.996;8.334;2022-12-01T00:18:39;8.63;;;4.10;;
19059;SDS011;9663;48.996;8.334;2022-12-01T00:21:05;7.07;;;3.60;;
19059;SDS011;9663;48.996;8.334;2022-12-01T00:23:43;8.38;;;3.78;;
19059;SDS011;9663;48.996;8.334;2022-12-01T00:26:11;8.05;;;3.42;;
19059;SDS011;9663;48.996;8.334;2022-12-01T00:28:37;7.00;;;3.20;;
19059;SDS011;9663;48.996;8.334;2022-12-01T00:31:06;7.68;;;3.30;;
19059;SDS011;9663;48.996;8.334;2022-12-01T00:33:33;7.50;;;3.70;;
19059;SDS011;9663;48.996;8.334;2022-12-01T00:35:59;8.27;;;4.07;;
19059;SDS011;9663;48.996;8.334;2022-12-01T00:38:25;7.22;;;3.38;;
19059;SDS011;9663;48.996;8.334;2022-12-01T00:40:52;8.02;;;3.53;;
19059;SDS011;9663;48.996;8.334;2022-12-01T00:43:17;7.68;;;3.60;;
19059;SDS011;9663;48.996;8.334;2022-12-01T00:45:43;7.32;;;3.42;;
19059;SDS011;9663;48.996;8.334;2022-12-01T00:48:09;8.07;;;3.72;;
19059;SDS011;9663;48.996;8.334;2022-12-01T00:50:34;8.30;;;3.90;;
19059;SDS011;9663;48.996;8.334;2022-12-01T00:53:00;7.57;;;3.47;;
19059;SDS011;9663;48.996;8.334;2022-12-01T00:55:25;8.20;;;3.70;;
19059;SDS011;9663;48.996;8.334;2022-12-01T00:57:51;7.55;;;3.28;;
19059;SDS011;9663;48.996;8.334;2022-12-01T01:00:17;7.82;;;3.33;;
19059;SDS011;9663;48.996;8.334;2022-12-01T01:02:43;8.35;;;3.75;;
19059;SDS011;9663;48.996;8.334;2022-12-01T01:05:09;7.10;;;3.78;;
19059;SDS011;9663;48.996;8.334;2022-12-01T01:07:34;7.15;;;3.58;;
19059;SDS011;9663;48.996;8.334;2022-12-01T01:10:00;8.57;;;3.78;;
19059;SDS011;9663;48.996;8.334;2022-12-01T01:12:26;6.88;;;3.17;;
19059;SDS011;9663;48.996;8.334;2022-12-01T01:14:52;7.45;;;3.35;;
19059;SDS011;9663;48.996;8.334;2022-12-01T01:17:18;6.82;;;3.35;;
19059;SDS011;9663;48.996;8.334;2022-12-01T01:19:43;7.30;;;3.55;;
19059;SDS011;9663;48.996;8.334;2022-12-01T01:22:10;7.18;;;3.60;;
19059;SDS011;9663;48.996;8.334;2022-12-01T01:24:36;8.75;;;4.15;;
19059;SDS011;9663;48.996;8.334;2022-12-01T01:27:02;8.05;;;3.88;;
19059;SDS011;9663;48.996;8.334;2022-12-01T01:29:30;6.78;;;3.58;;
19059;SDS011;9663;48.996;8.334;2022-12-01T01:31:56;8.40;;;4.43;;
19059;SDS011;9663;48.996;8.334;2022-12-01T01:34:22;9.50;;;4.53;;
19059;SDS011;9663;48.996;8.334;2022-12-01T01:36:47;9.32;;;4.32;;
19059;SDS011;9663;48.996;8.334;2022-12-01T01:39:13;9.18;;;4.40;;
19059;SDS011;9663;48.996;8.334;2022-12-01T01:41:40;9.00;;;4.50;;
19059;SDS011;9663;48.996;8.334;2022-12-01T01:47:13;8.50;;;4.57;;
19059;SDS011;9663;48.996;8.334;2022-12-01T01:49:44;10.85;;;5.10;;
19059;SDS011;9663;48.996;8.334;2022-12-01T01:52:10;9.25;;;4.43;;
19059;SDS011;9663;48.996;8.334;2022-12-01T01:54:38;10.27;;;4.70;;
19059;SDS011;9663;48.996;8.334;2022-12-01T01:57:10;9.35;;;4.40;;
19059;SDS011;9663;48.996;8.334;2022-12-01T01:59:43;9.32;;;4.72;;
19059;SDS011;9663;48.996;8.334;2022-12-01T02:02:17;10.20;;;5.20;;
19059;SDS011;9663;48.996;8.334;2022-12-01T02:04:44;9.80;;;4.80;;
19059;SDS011;9663;48.996;8.334;2022-12-01T02:07:15;8.38;;;4.15;;
19059;SDS011;9663;48.996;8.334;2022-12-01T02:09:43;10.65;;;5.20;;
19059;SDS011;9663;48.996;8.334;2022-12-01T02:18:45;9.15;;;4.78;;
19059;SDS011;9663;48.996;8.334;2022-12-01T02:25:01;8.95;;;4.38;;
19059;SDS011;9663;48.996;8.334;2022-12-01T02:28:03;8.88;;;4.70;;
19059;SDS011;9663;48.996;8.334;2022-12-01T02:31:06;9.00;;;4.68;;
19059;SDS011;9663;48.996;8.334;2022-12-01T02:34:01;9.15;;;4.00;;
19059;SDS011;9663;48.996;8.334;2022-12-01T02:39:31;8.60;;;4.28;;
19059;SDS011;9663;48.996;8.334;2022-12-01T02:42:16;8.98;;;4.68;;
19059;SDS011;9663;48.996;8.334;2022-12-01T02:45:12;10.25;;;4.78;;
19059;SDS011;9663;48.996;8.334;2022-12-01T02:47:52;9.65;;;4.78;;
19059;SDS011;9663;48.996;8.334;2022-12-01T02:50:23;7.88;;;4.13;;
19059;SDS011;9663;48.996;8.334;2022-12-01T02:52:53;9.00;;;4.90;;
19059;SDS011;9663;48.996;8.334;2022-12-01T02:55:19;8.43;;;4.57;;
19059;SDS011;9663;48.996;8.334;2022-12-01T02:57:45;8.25;;;4.30;;
19059;SDS011;9663;48.996;8.334;2022-12-01T03:00:11;10.38;;;5.40;;
19059;SDS011;9663;48.996;8.334;2022-12-01T03:08:11;8.23;;;4.65;;
19059;SDS011;9663;48.996;8.334;2022-12-01T03:10:56;9.13;;;4.53;;
19059;SDS011;9663;48.996;8.334;2022-12-01T03:19:07;9.18;;;4.53;;
19059;SDS011;9663;48.996;8.334;2022-12-01T03:21:48;8.35;;;4.15;;
19059;SDS011;9663;48.996;8.334;2022-12-01T03:24:28;8.88;;;4.82;;
19059;SDS011;9663;48.996;8.334;2022-12-01T03:26:57;10.48;;;5.10;;
19059;SDS011;9663;48.996;8.334;2022-12-01T03:29:27;9.23;;;4.90;;
19059;SDS011;9663;48.996;8.334;2022-12-01T03:32:05;10.18;;;5.53;;
19059;SDS011;9663;48.996;8.334;2022-12-01T03:34:43;10.45;;;4.80;;
19059;SDS011;9663;48.996;8.334;2022-12-01T03:37:17;10.93;;;5.43;;
19059;SDS011;9663;48.996;8.334;2022-12-01T03:39:55;9.88;;;4.72;;
19059;SDS011;9663;48.996;8.334;2022-12-01T03:42:24;10.40;;;5.47;;
19059;SDS011;9663;48.996;8.334;2022-12-01T03:44:58;9.95;;;4.88;;
19059;SDS011;9663;48.996;8.334;2022-12-01T03:47:31;8.90;;;5.32;;
19059;SDS011;9663;48.996;8.334;2022-12-01T03:50:01;10.15;;;5.07;;
19059;SDS011;9663;48.996;8.334;2022-12-01T03:52:37;9.50;;;4.80;;
19059;SDS011;9663;48.996;8.334;2022-12-01T03:55:43;8.57;;;3.92;;
19059;SDS011;9663;48.996;8.334;2022-12-01T03:58:38;10.30;;;4.50;;
19059;SDS011;9663;48.996;8.334;2022-12-01T04:01:09;8.35;;;4.60;;
19059;SDS011;9663;48.996;8.334;2022-12-01T04:03:36;9.60;;;5.20;;
19059;SDS011;9663;48.996;8.334;2022-12-01T04:06:02;8.20;;;4.30;;
19059;SDS011;9663;48.996;8.334;2022-12-01T04:08:28;8.95;;;4.85;;
19059;SDS011;9663;48.996;8.334;2022-12-01T04:10:55;8.38;;;4.30;;
19059;SDS011;9663;48.996;8.334;2022-12-01T04:13:21;8.85;;;4.28;;
19059;SDS011;9663;48.996;8.334;2022-12-01T04:15:48;8.30;;;3.85;;
19059;SDS011;9663;48.996;8.334;2022-12-01T04:18:15;8.75;;;4.38;;
19059;SDS011;9663;48.996;8.334;2022-12-01T04:20:41;9.45;;;5.05;;
19059;SDS011;9663;48.996;8.334;2022-12-01T04:23:09;9.43;;;5.20;;
19059;SDS011;9663;48.996;8.334;2022-12-01T04:25:35;7.80;;;4.32;;
19059;SDS011;9663;48.996;8.334;2022-12-01T04:28:00;9.48;;;4.70;;
19059;SDS011;9663;48.996;8.334;2022-12-01T04:30:26;8.95;;;4.80;;
19059;SDS011;9663;48.996;8.334;2022-12-01T04:32:52;9.45;;;4.78;;
19059;SDS011;9663;48.996;8.334;2022-12-01T04:35:17;10.13;;;4.70;;
19059;SDS011;9663;48.996;8.334;2022-12-01T04:37:43;10.60;;;5.13;;
19059;SDS011;9663;48.996;8.334;2022-12-01T04:40:09;10.40;;;4.97;;
19059;SDS011;9663;48.996;8.334;2022-12-01T04:42:35;9.70;;;5.03;;
19059;SDS011;9663;48.996;8.334;2022-12-01T04:45:01;9.82;;;4.60;;
19059;SDS011;9663;48.996;8.334;2022-12-01T04:47:27;9.93;;;5.00;;
19059;SDS011;9663;48.996;8.334;2022-12-01T04:49:52;9.15;;;4.78;;
19059;SDS011;9663;48.996;8.334;2022-12-01T04:52:18;10.07;;;4.85;;
19059;SDS011;9663;48.996;8.334;2022-12-01T04:54:44;9.27;;;4.65;;
19059;SDS011;9663;48.996;8.334;2022-12-01T04:57:09;8.23;;;4.07;;
19059;SDS011;9663;48.996;8.334;2022-12-01T04:59:35;8.70;;;4.47;;
19059;SDS011;9663;48.996;8.334;2022-12-01T05:02:01;9.80;;;5.05;;
19059;SDS011;9663;48.996;8.334;2022-12-01T05:04:28;10.40;;;5.03;;
19059;SDS011;9663;48.996;8.334;2022-12-01T05:06:55;10.02;;;5.30;;
19059;SDS011;9663;48.996;8.334;2022-12-01T05:09:21;8.90;;;4.78;;
19059;SDS011;9663;48.996;8.334;2022-12-01T05:11:46;9.68;;;4.65;;
19059;SDS011;9663;48.996;8.334;2022-12-01T05:14:12;10.50;;;5.38;;
19059;SDS011;9663;48.996;8.334;2022-12-01T05:16:38;9.73;;;5.10;;
19059;SDS011;9663;48.996;8.334;2022-12-01T05:19:04;12.38;;;5.13;;
19059;SDS011;9663;48.996;8.334;2022-12-01T05:21:59;11.00;;;5.00;;
19059;SDS011;9663;48.996;8.334;2022-12-01T05:24:24;10.25;;;4.85;;
19059;SDS011;9663;48.996;8.334;2022-12-01T05:26:50;9.68;;;4.88;;
19059;SDS011;9663;48.996;8.334;2022-12-01T05:29:16;9.57;;;5.03;;
19059;SDS011;9663;48.996;8.334;2022-12-01T05:31:42;8.52;;;4.20;;
19059;SDS011;9663;48.996;8.334;2022-12-01T05:34:10;8.88;;;4.82;;
19059;SDS011;9663;48.996;8.334;2022-12-01T05:36:35;10.15;;;5.18;;
19059;SDS011;9663;48.996;8.334;2022-12-01T05:39:01;9.63;;;4.70;;
19059;SDS011;9663;48.996;8.334;2022-12-01T05:41:28;9.57;;;4.68;;
19059;SDS011;9663;48.996;8.334;2022-12-01T05:43:54;10.68;;;5.20;;
19059;SDS011;9663;48.996;8.334;2022-12-01T05:46:20;8.80;;;4.50;;
19059;SDS011;9663;48.996;8.334;2022-12-01T05:48:45;10.45;;;5.22;;
19059;SDS011;9663;48.996;8.334;2022-12-01T05:51:12;9.77;;;4.82;;
19059;SDS011;9663;48.996;8.334;2022-12-01T05:53:40;11.25;;;4.72;;
19059;SDS011;9663;48.996;8.334;2022-12-01T05:56:07;9.25;;;5.00;;
19059;SDS011;9663;48.996;8.334;2022-12-01T05:58:34;9.32;;;4.63;;
19059;SDS011;9663;48.996;8.334;2022-12-01T06:01:00;9.85;;;5.03;;
19059;SDS011;9663;48.996;8.334;2022-12-01T06:03:26;9.23;;;5.07;;
19059;SDS011;9663;48.996;8.334;2022-12-01T06:05:52;8.63;;;4.72;;
19059;SDS011;9663;48.996;8.334;2022-12-01T06:08:18;8.68;;;4.10;;
19059;SDS011;9663;48.996;8.334;2022-12-01T06:10:43;9.40;;;4.60;;
19059;SDS011;9663;48.996;8.334;2022-12-01T06:13:10;8.52;;;4.50;;
19059;SDS011;9663;48.996;8.334;2022-12-01T06:15:35;9.23;;;4.55;;
19059;SDS011;9663;48.996;8.334;2022-12-01T06:18:01;9.07;;;4.75;;
19059;SDS011;9663;48.996;8.334;2022-12-01T06:20:27;8.50;;;4.45;;
19059;SDS011;9663;48.996;8.334;2022-12-01T06:22:53;8.38;;;4.18;;
19059;SDS011;9663;48.996;8.334;2022-12-01T06:25:19;10.68;;;4.40;;
19059;SDS011;9663;48.996;8.334;2022-12-01T06:27:44;10.70;;;4.97;;
19059;SDS011;9663;48.996;8.334;2022-12-01T06:30:11;8.70;;;4.50;;
19059;SDS011;9663;48.996;8.334;2022-12-01T06:32:37;9.00;;;4.38;;
19059;SDS011;9663;48.996;8.334;2022-12-01T06:35:05;9.02;;;4.38;;
19059;SDS011;9663;48.996;8.334;2022-12-01T06:37:34;8.52;;;4.55;;
19059;SDS011;9663;48.996;8.334;2022-12-01T06:40:00;9.63;;;4.70;;
19059;SDS011;9663;48.996;8.334;2022-12-01T06:42:27;8.23;;;4.25;;
19059;SDS011;9663;48.996;8.334;2022-12-01T06:44:55;7.88;;;4.20;;
19059;SDS011;9663;48.996;8.334;2022-12-01T06:47:21;8.85;;;4.18;;
19059;SDS011;9663;48.996;8.334;2022-12-01T06:49:48;8.52;;;4.47;;
19059;SDS011;9663;48.996;8.334;2022-12-01T06:52:14;8.55;;;4.15;;
19059;SDS011;9663;48.996;8.334;2022-12-01T06:54:42;8.93;;;4.18;;
19059;SDS011;9663;48.996;8.334;2022-12-01T06:57:08;7.57;;;3.88;;
19059;SDS011;9663;48.996;8.334;2022-12-01T06:59:34;9.00;;;4.47;;
19059;SDS011;9663;48.996;8.334;2022-12-01T07:01:59;9.50;;;4.65;;
19059;SDS011;9663;48.996;8.334;2022-12-01T07:04:26;8.38;;;4.07;;
19059;SDS011;9663;48.996;8.334;2022-12-01T07:06:54;9.10;;;4.18;;
19059;SDS011;9663;48.996;8.334;2022-12-01T07:09:19;8.65;;;4.07;;
19059;SDS011;9663;48.996;8.334;2022-12-01T07:11:45;7.72;;;3.92;;
19059;SDS011;9663;48.996;8.334;2022-12-01T07:14:29;9.25;;;4.72;;
19059;SDS011;9663;48.996;8.334;2022-12-01T07:16:55;7.28;;;3.67;;
19059;SDS011;9663;48.996;8.334;2022-12-01T07:19:22;7.90;;;4.30;;
19059;SDS011;9663;48.996;8.334;2022-12-01T07:21:48;6.97;;;3.42;;
19059;SDS011;9663;48.996;8.334;2022-12-01T07:24:14;7.45;;;3.83;;
19059;SDS011;9663;48.996;8.334;2022-12-01T07:26:40;7.50;;;3.80;;
19059;SDS011;9663;48.996;8.334;2022-12-01T07:29:10;8.15;;;4.00;;
19059;SDS011;9663;48.996;8.334;2022-12-01T07:31:36;7.90;;;4.10;;
19059;SDS011;9663;48.996;8.334;2022-12-01T07:34:02;9.07;;;4.25;;
19059;SDS011;9663;48.996;8.334;2022-12-01T07:36:29;8.05;;;4.32;;
19059;SDS011;9663;48.996;8.334;2022-12-01T07:38:55;7.65;;;3.88;;
19059;SDS011;9663;48.996;8.334;2022-12-01T07:41:21;6.93;;;3.65;;
19059;SDS011;9663;48.996;8.334;2022-12-01T07:43:47;7.80;;;4.00;;
19059;SDS011;9663;48.996;8.334;2022-12-01T07:46:13;7.20;;;3.28;;
19059;SDS011;9663;48.996;8.334;2022-12-01T07:48:42;7.60;;;4.05;;
19059;SDS011;9663;48.996;8.334;2022-12-01T07:51:09;7.32;;;3.88;;
19059;SDS011;9663;48.996;8.334;2022-12-01T07:53:39;6.93;;;3.70;;
19059;SDS011;9663;48.996;8.334;2022-12-01T07:56:04;8.35;;;4.60;;
19059;SDS011;9663;48.996;8.334;2022-12-01T07:58:31;9.35;;;4.07;;
19059;SDS011;9663;48.996;8.334;2022-12-01T08:00:57;8.02;;;4.10;;
19059;SDS011;9663;48.996;8.334;2022-12-01T08:03:23;8.05;;;4.10;;
19059;SDS011;9663;48.996;8.334;2022-12-01T08:05:56;7.88;;;4.07;;
19059;SDS011;9663;48.996;8.334;2022-12-01T08:08:23;7.65;;;3.75;;
19059;SDS011;9663;48.996;8.334;2022-12-01T08:10:50;7.88;;;4.32;;
19059;SDS011;9663;48.996;8.334;2022-12-01T08:13:17;8.07;;;4.20;;
19059;SDS011;9663;48.996;8.334;2022-12-01T08:15:44;8.82;;;4.13;;
19059;SDS011;9663;48.996;8.334;2022-12-01T08:18:09;8.43;;;4.30;;
19059;SDS011;9663;48.996;8.334;2022-12-01T08:20:35;8.50;;;4.32;;
19059;SDS011;9663;48.996;8.334;2022-12-01T08:23:01;7.15;;;3.75;;
19059;SDS011;9663;48.996;8.334;2022-12-01T08:25:28;8.63;;;4.05;;
19059;SDS011;9663;48.996;8.334;2022-12-01T08:27:54;8.05;;;4.20;;
19059;SDS011;9663;48.996;8.334;2022-12-01T08:30:20;8.25;;;3.80;;
19059;SDS011;9663;48.996;8.334;2022-12-01T08:32:46;7.15;;;3.63;;
19059;SDS011;9663;48.996;8.334;2022-12-01T08:35:12;6.15;;;2.92;;
19059;SDS011;9663;48.996;8.334;2022-12-01T08:37:39;7.60;;;3.90;;
19059;SDS011;9663;48.996;8.334;2022-12-01T08:40:05;7.78;;;3.47;;
19059;SDS011;9663;48.996;8.334;2022-12-01T08:42:31;9.60;;;3.97;;
19059;SDS011;9663;48.996;8.334;2022-12-01T08:44:57;7.18;;;3.60;;
19059;SDS011;9663;48.996;8.334;2022-12-01T08:47:22;7.93;;;3.90;;
19059;SDS011;9663;48.996;8.334;2022-12-01T08:49:48;8.07;;;3.92;;
19059;SDS011;9663;48.996;8.334;2022-12-01T08:52:14;8.75;;;3.95;;
19059;SDS011;9663;48.996;8.334;2022-12-01T08:54:39;7.63;;;3.70;;
19059;SDS011;9663;48.996;8.334;2022-12-01T08:57:05;7.15;;;3.78;;
19059;SDS011;9663;48.996;8.334;2022-12-01T08:59:31;8.98;;;3.97;;
19059;SDS011;9663;48.996;8.334;2022-12-01T09:01:57;7.20;;;3.72;;
19059;SDS011;9663;48.996;8.334;2022-12-01T09:04:23;8.32;;;4.20;;
19059;SDS011;9663;48.996;8.334;2022-12-01T09:06:51;7.75;;;3.97;;
19059;SDS011;9663;48.996;8.334;2022-12-01T09:09:20;8.13;;;4.18;;
19059;SDS011;9663;48.996;8.334;2022-12-01T09:11:52;7.32;;;3.20;;
19059;SDS011;9663;48.996;8.334;2022-12-01T09:14:19;7.25;;;3.65;;
19059;SDS011;9663;48.996;8.334;2022-12-01T09:16:47;8.27;;;3.55;;
19059;SDS011;9663;48.996;8.334;2022-12-01T09:19:14;7.53;;;4.03;;
19059;SDS011;9663;48.996;8.334;2022-12-01T09:21:42;8.10;;;3.97;;
19059;SDS011;9663;48.996;8.334;2022-12-01T09:24:09;7.47;;;4.07;;
19059;SDS011;9663;48.996;8.334;2022-12-01T09:26:40;7.20;;;3.47;;
19059;SDS011;9663;48.996;8.334;2022-12-01T09:29:07;7.05;;;3.88;;
19059;SDS011;9663;48.996;8.334;2022-12-01T09:31:36;11.10;;;6.65;;
19059;SDS011;9663;48.996;8.334;2022-12-01T09:34:03;12.75;;;7.70;;
19059;SDS011;9663;48.996;8.334;2022-12-01T09:36:32;10.13;;;5.93;;
19059;SDS011;9663;48.996;8.334;2022-12-01T09:39:00;9.18;;;5.40;;
19059;SDS011;9663;48.996;8.334;2022-12-01T09:41:31;8.07;;;4.40;;
19059;SDS011;9663;48.996;8.334;2022-12-01T09:44:12;8.27;;;4.30;;
19059;SDS011;9663;48.996;8.334;2022-12-01T09:47:23;8.45;;;4.07;;
19059;SDS011;9663;48.996;8.334;2022-12-01T09:52:27;8.15;;;3.72;;
19059;SDS011;9663;48.996;8.334;2022-12-01T09:55:02;7.75;;;4.10;;
19059;SDS011;9663;48.996;8.334;2022-12-01T09:57:36;8.63;;;4.03;;
19059;SDS011;9663;48.996;8.334;2022-12-01T10:00:14;7.50;;;3.70;;
19059;SDS011;9663;48.996;8.334;2022-12-01T10:02:48;8.73;;;3.97;;
19059;SDS011;9663;48.996;8.334;2022-12-01T10:05:45;9.40;;;4.57;;
19059;SDS011;9663;48.996;8.334;2022-12-01T10:08:22;6.88;;;3.47;;
19059;SDS011;9663;48.996;8.334;2022-12-01T10:10:53;8.43;;;4.43;;
19059;SDS011;9663;48.996;8.334;2022-12-01T10:13:30;8.65;;;4.25;;
19059;SDS011;9663;48.996;8.334;2022-12-01T10:24:06;7.22;;;4.10;;
19059;SDS011;9663;48.996;8.334;2022-12-01T10:30:02;7.40;;;3.50;;
19059;SDS011;9663;48.996;8.334;2022-12-01T10:32:37;8.05;;;4.13;;
19059;SDS011;9663;48.996;8.334;2022-12-01T10:35:24;8.48;;;3.60;;
19059;SDS011;9663;48.996;8.334;2022-12-01T10:38:01;7.63;;;3.85;;
19059;SDS011;9663;48.996;8.334;2022-12-01T10:40:31;9.05;;;3.85;;
19059;SDS011;9663;48.996;8.334;2022-12-01T10:43:00;7.50;;;3.75;;
19059;SDS011;9663;48.996;8.334;2022-12-01T10:45:27;8.30;;;3.90;;
19059;SDS011;9663;48.996;8.334;2022-12-01T10:48:13;8.48;;;3.92;;
19059;SDS011;9663;48.996;8.334;2022-12-01T10:50:48;7.50;;;3.70;;
19059;SDS011;9663;48.996;8.334;2022-12-01T10:55:48;8.23;;;4.32;;
19059;SDS011;9663;48.996;8.334;2022-12-01T11:01:18;8.18;;;3.85;;
19059;SDS011;9663;48.996;8.334;2022-12-01T11:04:05;8.32;;;4.18;;
19059;SDS011;9663;48.996;8.334;2022-12-01T11:06:53;7.43;;;3.80;;
19059;SDS011;9663;48.996;8.334;2022-12-01T11:09:20;8.20;;;4.25;;
19059;SDS011;9663;48.996;8.334;2022-12-01T11:12:00;8.52;;;4.00;;
19059;SDS011;9663;48.996;8.334;2022-12-01T11:14:49;7.40;;;3.42;;
19059;SDS011;9663;48.996;8.334;2022-12-01T11:19:54;7.40;;;3.30;;
19059;SDS011;9663;48.996;8.334;2022-12-01T11:27:28;8.98;;;3.90;;
19059;SDS011;9663;48.996;8.334;2022-12-01T11:30:19;8.32;;;3.92;;
19059;SDS011;9663;48.996;8.334;2022-12-01T11:32:50;7.35;;;3.58;;
19059;SDS011;9663;48.996;8.334;2022-12-01T11:35:21;6.85;;;3.53;;
19059;SDS011;9663;48.996;8.334;2022-12-01T11:38:00;7.13;;;3.88;;
19059;SDS011;9663;48.996;8.334;2022-12-01T11:40:37;7.03;;;3.75;;
19059;SDS011;9663;48.996;8.334;2022-12-01T11:43:22;7.32;;;3.90;;
19059;SDS011;9663;48.996;8.334;2022-12-01T11:45:52;7.32;;;3.75;;
19059;SDS011;9663;48.996;8.334;2022-12-01T11:48:24;7.82;;;4.30;;
19059;SDS011;9663;48.996;8.334;2022-12-01T11:53:33;8.75;;;4.13;;
19059;SDS011;9663;48.996;8.334;2022-12-01T11:59:03;6.53;;;3.40;;
19059;SDS011;9663;48.996;8.334;2022-12-01T12:04:34;7.28;;;3.72;;
19059;SDS011;9663;48.996;8.334;2022-12-01T12:10:12;8.32;;;3.85;;
19059;SDS011;9663;48.996;8.334;2022-12-01T12:13:08;8.30;;;4.10;;
19059;SDS011;9663;48.996;8.334;2022-12-01T12:16:16;7.40;;;3.70;;
19059;SDS011;9663;48.996;8.334;2022-12-01T12:27:36;8.10;;;3.85;;
19059;SDS011;9663;48.996;8.334;2022-12-01T12:35:48;7.90;;;3.67;;
19059;SDS011;9663;48.996;8.334;2022-12-01T12:44:13;8.07;;;4.20;;
19059;SDS011;9663;48.996;8.334;2022-12-01T12:47:11;6.82;;;3.25;;
19059;SDS011;9663;48.996;8.334;2022-12-01T12:50:02;8.23;;;4.35;;
19059;SDS011;9663;48.996;8.334;2022-12-01T12:52:55;8.23;;;4.00;;
19059;SDS011;9663;48.996;8.334;2022-12-01T12:55:31;7.88;;;4.22;;
19059;SDS011;9663;48.996;8.334;2022-12-01T12:58:14;9.48;;;4.03;;
19059;SDS011;9663;48.996;8.334;2022-12-01T13:00:54;9.25;;;4.45;;
19059;SDS011;9663;48.996;8.334;2022-12-01T13:06:31;7.88;;;3.72;;
19059;SDS011;9663;48.996;8.334;2022-12-01T13:09:10;8.60;;;4.40;;
19059;SDS011;9663;48.996;8.334;2022-12-01T13:12:14;10.45;;;4.45;;
19059;SDS011;9663;48.996;8.334;2022-12-01T13:15:15;10.60;;;4.15;;
19059;SDS011;9663;48.996;8.334;2022-12-01T13:17:47;8.85;;;3.92;;
19059;SDS011;9663;48.996;8.334;2022-12-01T13:20:26;10.05;;;4.32;;
19059;SDS011;9663;48.996;8.334;2022-12-01T13:22:54;8.15;;;4.30;;
19059;SDS011;9663;48.996;8.334;2022-12-01T13:25:28;8.65;;;4.78;;
19059;SDS011;9663;48.996;8.334;2022-12-01T13:28:04;8.77;;;4.78;;
19059;SDS011;9663;48.996;8.334;2022-12-01T13:31:03;7.30;;;3.90;;
19059;SDS011;9663;48.996;8.334;2022-12-01T13:33:52;7.72;;;3.97;;
19059;SDS011;9663;48.996;8.334;2022-12-01T13:36:23;7.38;;;3.60;;
19059;SDS011;9663;48.996;8.334;2022-12-01T13:39:37;8.75;;;3.97;;
19059;SDS011;9663;48.996;8.334;2022-12-01T13:41:55;7.32;;;3.53;;
19059;SDS011;9663;48.996;8.334;2022-12-01T13:44:25;7.65;;;3.70;;
19059;SDS011;9663;48.996;8.334;2022-12-01T13:46:55;8.20;;;4.18;;
19059;SDS011;9663;48.996;8.334;2022-12-01T13:55:31;8.15;;;4.03;;
19059;SDS011;9663;48.996;8.334;2022-12-01T13:58:21;7.72;;;3.75;;
19059;SDS011;9663;48.996;8.334;2022-12-01T14:00:31;9.85;;;4.63;;
19059;SDS011;9663;48.996;8.334;2022-12-01T14:03:59;8.32;;;4.20;;
19059;SDS011;9663;48.996;8.334;2022-12-01T14:06:07;9.25;;;4.07;;
19059;SDS011;9663;48.996;8.334;2022-12-01T14:08:44;9.07;;;4.20;;
19059;SDS011;9663;48.996;8.334;2022-12-01T14:11:18;8.18;;;4.35;;
19059;SDS011;9663;48.996;8.334;2022-12-01T14:14:31;7.97;;;3.83;;
19059;SDS011;9663;48.996;8.334;2022-12-01T14:16:45;7.80;;;4.07;;
19059;SDS011;9663;48.996;8.334;2022-12-01T14:27:49;8.35;;;3.90;;
19059;SDS011;9663;48.996;8.334;2022-12-01T14:38:47;8.50;;;4.07;;
19059;SDS011;9663;48.996;8.334;2022-12-01T14:44:04;7.93;;;3.70;;
19059;SDS011;9663;48.996;8.334;2022-12-01T14:47:07;7.53;;;3.55;;
19059;SDS011;9663;48.996;8.334;2022-12-01T14:52:37;7.18;;;3.30;;
19059;SDS011;9663;48.996;8.334;2022-12-01T14:55:20;7.93;;;3.80;;
19059;SDS011;9663;48.996;8.334;2022-12-01T14:58:01;6.93;;;3.30;;
19059;SDS011;9663;48.996;8.334;2022-12-01T15:00:33;8.20;;;3.80;;
19059;SDS011;9663;48.996;8.334;2022-12-01T15:03:03;8.80;;;4.35;;
19059;SDS011;9663;48.996;8.334;2022-12-01T15:05:37;9.25;;;4.40;;
19059;SDS011;9663;48.996;8.334;2022-12-01T15:08:22;6.95;;;3.75;;
19059;SDS011;9663;48.996;8.334;2022-12-01T15:10:53;7.95;;;3.78;;
19059;SDS011;9663;48.996;8.334;2022-12-01T15:13:23;8.88;;;4.10;;
19059;SDS011;9663;48.996;8.334;2022-12-01T15:16:13;7.00;;;3.35;;
19059;SDS011;9663;48.996;8.334;2022-12-01T15:18:42;8.80;;;4.20;;
19059;SDS011;9663;48.996;8.334;2022-12-01T15:24:19;8.45;;;4.05;;
19059;SDS011;9663;48.996;8.334;2022-12-01T15:26:49;7.82;;;4.25;;
19059;SDS011;9663;48.996;8.334;2022-12-01T15:29:23;7.32;;;3.30;;
19059;SDS011;9663;48.996;8.334;2022-12-01T15:32:11;8.52;;;3.97;;
19059;SDS011;9663;48.996;8.334;2022-12-01T15:34:47;8.93;;;3.85;;
19059;SDS011;9663;48.996;8.334;2022-12-01T15:37:18;8.57;;;4.25;;
19059;SDS011;9663;48.996;8.334;2022-12-01T15:39:48;8.43;;;4.20;;
19059;SDS011;9663;48.996;8.334;2022-12-01T15:55:31;8.27;;;3.65;;
19059;SDS011;9663;48.996;8.334;2022-12-01T15:58:05;8.07;;;3.92;;
19059;SDS011;9663;48.996;8.334;2022-12-01T16:00:33;7.82;;;3.70;;
19059;SDS011;9663;48.996;8.334;2022-12-01T16:03:00;8.55;;;4.32;;
19059;SDS011;9663;48.996;8.334;2022-12-01T16:05:28;7.70;;;3.92;;
19059;SDS011;9663;48.996;8.334;2022-12-01T16:07:57;7.15;;;3.58;;
19059;SDS011;9663;48.996;8.334;2022-12-01T16:18:56;8.27;;;3.92;;
19059;SDS011;9663;48.996;8.334;2022-12-01T16:27:50;6.22;;;3.38;;
19059;SDS011;9663;48.996;8.334;2022-12-01T16:30:19;8.30;;;4.68;;
19059;SDS011;9663;48.996;8.334;2022-12-01T16:32:48;9.10;;;3.97;;
19059;SDS011;9663;48.996;8.334;2022-12-01T16:35:21;9.77;;;4.40;;
19059;SDS011;9663;48.996;8.334;2022-12-01T16:37:54;7.85;;;3.78;;
19059;SDS011;9663;48.996;8.334;2022-12-01T16:40:21;8.40;;;4.07;;
19059;SDS011;9663;48.996;8.334;2022-12-01T16:42:47;9.02;;;4.32;;
19059;SDS011;9663;48.996;8.334;2022-12-01T16:45:14;8.27;;;4.20;;
19059;SDS011;9663;48.996;8.334;2022-12-01T16:47:43;8.77;;;4.38;;
19059;SDS011;9663;48.996;8.334;2022-12-01T16:50:12;8.43;;;4.47;;
19059;SDS011;9663;48.996;8.334;2022-12-01T16:52:39;7.82;;;3.83;;
19059;SDS011;9663;48.996;8.334;2022-12-01T16:55:19;8.13;;;4.00;;
19059;SDS011;9663;48.996;8.334;2022-12-01T16:58:00;8.32;;;4.07;;
19059;SDS011;9663;48.996;8.334;2022-12-01T17:00:26;8.07;;;4.00;;
19059;SDS011;9663;48.996;8.334;2022-12-01T17:02:53;7.20;;;3.65;;
19059;SDS011;9663;48.996;8.334;2022-12-01T17:05:19;8.93;;;4.10;;
19059;SDS011;9663;48.996;8.334;2022-12-01T17:07:45;7.78;;;3.90;;
19059;SDS011;9663;48.996;8.334;2022-12-01T17:10:11;8.18;;;3.97;;
19059;SDS011;9663;48.996;8.334;2022-12-01T17:12:38;7.20;;;3.65;;
19059;SDS011;9663;48.996;8.334;2022-12-01T17:15:03;7.35;;;3.70;;
19059;SDS011;9663;48.996;8.334;2022-12-01T17:17:30;8.20;;;3.80;;
19059;SDS011;9663;48.996;8.334;2022-12-01T17:19:55;9.00;;;4.18;;
19059;SDS011;9663;48.996;8.334;2022-12-01T17:22:21;8.77;;;4.50;;
19059;SDS011;9663;48.996;8.334;2022-12-01T17:24:47;7.68;;;3.95;;
19059;SDS011;9663;48.996;8.334;2022-12-01T17:27:12;8.68;;;3.80;;
19059;SDS011;9663;48.996;8.334;2022-12-01T17:29:38;8.13;;;3.90;;
19059;SDS011;9663;48.996;8.334;2022-12-01T17:32:04;7.22;;;3.53;;
19059;SDS011;9663;48.996;8.334;2022-12-01T17:34:34;8.18;;;4.40;;
19059;SDS011;9663;48.996;8.334;2022-12-01T17:37:00;8.15;;;3.50;;
19059;SDS011;9663;48.996;8.334;2022-12-01T17:39:26;7.70;;;3.85;;
19059;SDS011;9663;48.996;8.334;2022-12-01T17:41:54;8.18;;;3.97;;
19059;SDS011;9663;48.996;8.334;2022-12-01T17:44:20;8.23;;;4.00;;
19059;SDS011;9663;48.996;8.334;2022-12-01T17:46:46;7.47;;;3.70;;
19059;SDS011;9663;48.996;8.334;2022-12-01T17:49:11;8.27;;;3.80;;
19059;SDS011;9663;48.996;8.334;2022-12-01T17:51:37;9.02;;;3.95;;
19059;SDS011;9663;48.996;8.334;2022-12-01T17:54:04;8.23;;;3.85;;